Time;durP1;ratioP1;P1;durP2;ratioP2;P2;SDS_P1;SDS_P2;PMS_P1;PMS_P2;Temp;Humidity;BMP_temperature;BMP_pressure;BME280_temperature;BME280_humidity;BME280_pressure;Samples;Min_cycle;Max_cycle;Signal;HPM_P1;HPM_P2
2022/09/30 00:01:44;;;;;;;8.35;3.53;;;9.00;99.90;;;;;;5061070;28;20044;-57
2022/09/30 00:04:14;;;;;;;6.38;3.33;;;9.00;99.90;;;;;;5060476;28;20037;-57
2022/09/30 00:06:40;;;;;;;7.15;3.70;;;9.10;99.90;;;;;;5060797;28;20041;-58
2022/09/30 00:09:05;;;;;;;9.38;3.75;;;9.10;99.90;;;;;;5061047;28;20110;-57
2022/09/30 00:11:33;;;;;;;6.57;3.60;;;9.00;99.90;;;;;;5060375;28;20064;-58
2022/09/30 00:14:00;;;;;;;7.72;3.60;;;9.10;99.90;;;;;;5061245;28;20559;-57
2022/09/30 00:16:28;;;;;;;7.05;4.25;;;9.00;99.90;;;;;;5060208;28;20401;-57
2022/09/30 00:18:55;;;;;;;8.65;3.75;;;9.00;99.90;;;;;;5060726;28;20040;-57
2022/09/30 00:21:22;;;;;;;7.40;3.20;;;9.00;99.90;;;;;;5060506;28;20551;-57
2022/09/30 00:23:48;;;;;;;7.28;3.42;;;9.00;99.90;;;;;;5060387;28;20041;-58
2022/09/30 00:26:17;;;;;;;6.20;3.40;;;8.90;99.90;;;;;;5060870;28;20048;-57
2022/09/30 00:28:43;;;;;;;6.43;3.35;;;8.90;99.90;;;;;;5060337;28;20033;-57
2022/09/30 00:31:15;;;;;;;5.88;3.08;;;9.00;99.90;;;;;;5061000;28;20374;-57
2022/09/30 00:33:42;;;;;;;6.13;3.35;;;8.90;99.90;;;;;;5059923;28;20179;-57
2022/09/30 00:36:08;;;;;;;6.47;2.97;;;8.80;99.90;;;;;;5060770;28;20033;-57
2022/09/30 00:38:34;;;;;;;5.65;3.13;;;8.80;99.90;;;;;;5060134;28;20072;-58
2022/09/30 00:41:02;;;;;;;6.35;3.25;;;8.80;99.90;;;;;;5073437;28;20056;-58
2022/09/30 00:43:50;;;;;;;7.93;3.58;;;8.90;99.90;;;;;;5080589;28;20060;-57
2022/09/30 00:46:38;;;;;;;5.50;2.88;;;8.80;99.90;;;;;;5079733;28;20052;-58
2022/09/30 00:49:12;;;;;;;6.10;3.08;;;8.70;99.90;;;;;;5080438;28;20044;-58
2022/09/30 00:51:43;;;;;;;6.03;3.28;;;8.70;99.90;;;;;;5080143;28;20520;-56
2022/09/30 00:54:14;;;;;;;7.20;3.20;;;8.70;99.90;;;;;;5079224;28;20041;-58
2022/09/30 00:56:48;;;;;;;5.55;3.25;;;8.70;99.90;;;;;;5080564;28;20067;-57
2022/09/30 00:59:21;;;;;;;7.63;3.05;;;8.60;99.90;;;;;;5079330;28;20057;-57
2022/09/30 01:01:48;;;;;;;7.80;3.40;;;8.60;99.90;;;;;;5080255;28;20044;-58
2022/09/30 01:04:19;;;;;;;6.85;3.10;;;8.50;99.90;;;;;;5079897;28;20382;-57
2022/09/30 01:06:45;;;;;;;7.65;3.33;;;8.50;99.90;;;;;;5079138;28;20137;-58
2022/09/30 01:09:11;;;;;;;7.72;3.42;;;8.60;99.90;;;;;;5077891;28;20115;-56
2022/09/30 01:11:37;;;;;;;6.22;3.10;;;8.60;99.90;;;;;;5079128;28;20044;-57
2022/09/30 01:14:23;;;;;;;7.43;4.00;;;8.60;99.90;;;;;;5080198;28;20043;-57
2022/09/30 01:16:49;;;;;;;6.57;3.90;;;8.50;99.90;;;;;;5079336;28;20037;-57
2022/09/30 01:19:31;;;;;;;8.30;4.10;;;8.50;99.90;;;;;;5079272;28;20094;-58
2022/09/30 01:21:57;;;;;;;7.03;3.25;;;8.50;99.90;;;;;;5078900;28;20056;-57
2022/09/30 01:24:37;;;;;;;7.95;3.88;;;8.60;99.90;;;;;;5079007;28;20090;-58
2022/09/30 01:27:24;;;;;;;7.15;3.45;;;8.70;99.90;;;;;;5079794;28;20076;-57
2022/09/30 01:30:10;;;;;;;5.50;3.00;;;8.70;99.90;;;;;;5079143;28;20079;-57
2022/09/30 01:32:41;;;;;;;5.97;3.28;;;8.70;99.90;;;;;;5078560;28;20504;-58
2022/09/30 01:35:22;;;;;;;6.53;3.45;;;8.70;99.90;;;;;;5079745;28;20041;-58
2022/09/30 01:38:16;;;;;;;7.78;3.53;;;8.60;99.90;;;;;;5079098;28;20052;-58
2022/09/30 01:41:00;;;;;;;6.05;3.67;;;8.50;99.90;;;;;;5077521;28;20040;-57
2022/09/30 01:43:26;;;;;;;6.90;3.35;;;8.60;99.90;;;;;;5079491;28;20048;-57
2022/09/30 01:45:57;;;;;;;7.25;3.83;;;8.70;99.90;;;;;;5078526;28;20090;-58
2022/09/30 01:48:43;;;;;;;7.13;3.95;;;8.80;99.90;;;;;;5079555;28;20045;-58
2022/09/30 01:51:28;;;;;;;6.50;3.58;;;8.60;99.90;;;;;;5066628;28;20052;-57
2022/09/30 01:53:59;;;;;;;6.63;3.53;;;8.60;99.90;;;;;;5058600;28;20254;-58
2022/09/30 01:56:40;;;;;;;8.02;3.75;;;8.70;99.90;;;;;;5059393;28;20052;-57
2022/09/30 01:59:13;;;;;;;9.88;3.70;;;8.60;99.90;;;;;;5058161;28;20088;-57
2022/09/30 02:01:59;;;;;;;7.22;4.25;;;8.50;99.90;;;;;;5059215;28;20202;-57
2022/09/30 02:04:30;;;;;;;6.63;3.88;;;8.60;99.90;;;;;;5057624;28;20056;-56
2022/09/30 02:07:00;;;;;;;5.97;3.33;;;8.70;99.90;;;;;;5056861;28;20116;-58
2022/09/30 02:09:39;;;;;;;6.70;3.42;;;8.70;99.90;;;;;;5058866;28;20960;-57
2022/09/30 02:12:11;;;;;;;7.32;3.70;;;8.60;99.90;;;;;;5058510;28;20060;-57
2022/09/30 02:14:51;;;;;;;6.43;3.65;;;8.70;99.90;;;;;;5059226;28;20531;-58
2022/09/30 02:17:22;;;;;;;7.40;3.63;;;8.70;99.90;;;;;;5058886;28;20055;-57
2022/09/30 02:20:06;;;;;;;7.43;3.72;;;8.70;99.90;;;;;;5058273;28;20041;-58
2022/09/30 02:22:51;;;;;;;7.78;3.80;;;8.80;99.90;;;;;;5062967;28;20516;-57
2022/09/30 02:25:22;;;;;;;7.75;3.92;;;8.70;99.90;;;;;;5062430;28;20040;-57
2022/09/30 02:27:54;;;;;;;6.68;3.40;;;8.70;99.90;;;;;;5062768;28;20052;-58
2022/09/30 02:30:19;;;;;;;6.15;3.38;;;8.60;99.90;;;;;;5061984;28;20178;-57
2022/09/30 02:32:48;;;;;;;6.53;3.72;;;8.50;99.90;;;;;;5061017;28;20532;-58
2022/09/30 02:35:26;;;;;;;6.00;3.30;;;8.50;99.90;;;;;;5063022;28;20136;-57
2022/09/30 02:37:57;;;;;;;6.35;3.30;;;8.60;99.90;;;;;;5062234;28;20049;-57
2022/09/30 02:40:51;;;;;;;6.87;3.60;;;8.50;99.90;;;;;;5071563;28;20037;-57
2022/09/30 02:43:19;;;;;;;6.32;3.33;;;8.60;99.90;;;;;;5081212;28;20056;-57
2022/09/30 02:46:13;;;;;;;6.30;3.60;;;8.50;99.90;;;;;;5082052;28;20111;-58
2022/09/30 02:48:48;;;;;;;7.75;3.88;;;8.50;99.90;;;;;;5082889;28;20125;-58
2022/09/30 02:51:21;;;;;;;8.10;4.05;;;8.60;99.90;;;;;;5069326;28;20037;-57
2022/09/30 02:53:53;;;;;;;7.25;3.50;;;8.70;99.90;;;;;;5061764;28;20049;-58
2022/09/30 02:56:54;;;;;;;5.95;3.38;;;8.70;99.90;;;;;;5062794;28;20107;-57
2022/09/30 02:59:22;;;;;;;6.90;3.88;;;8.70;99.90;;;;;;5038911;28;20065;-58
2022/09/30 03:01:48;;;;;;;7.28;3.72;;;8.60;99.90;;;;;;5057854;28;20083;-62
2022/09/30 03:04:18;;;;;;;7.50;3.90;;;8.80;99.90;;;;;;5061974;28;20045;-58
2022/09/30 03:06:44;;;;;;;6.13;3.50;;;8.70;99.90;;;;;;5061909;28;20044;-57
2022/09/30 03:09:10;;;;;;;7.70;4.07;;;8.80;99.90;;;;;;5062421;28;20096;-57
2022/09/30 03:11:37;;;;;;;6.57;3.65;;;8.90;99.90;;;;;;5061517;28;20041;-57
2022/09/30 03:14:31;;;;;;;7.22;3.38;;;8.90;99.90;;;;;;5062301;28;20090;-57
2022/09/30 03:17:13;;;;;;;10.38;3.95;;;8.80;99.90;;;;;;5061962;28;20041;-56
2022/09/30 03:20:04;;;;;;;7.35;3.92;;;8.80;99.90;;;;;;5061502;28;20049;-57
2022/09/30 03:22:58;;;;;;;8.80;3.40;;;8.90;99.90;;;;;;5062142;28;20073;-58
2022/09/30 03:26:03;;;;;;;6.15;3.55;;;8.80;99.90;;;;;;5061665;28;20045;-56
2022/09/30 03:28:40;;;;;;;8.35;4.43;;;8.80;99.90;;;;;;5061101;28;20059;-58
2022/09/30 03:31:30;;;;;;;8.20;3.75;;;8.70;99.90;;;;;;5065735;28;20056;-56
2022/09/30 03:34:26;;;;;;;5.78;3.10;;;8.60;99.90;;;;;;5078952;28;20055;-57
2022/09/30 03:37:21;;;;;;;6.25;3.40;;;8.60;99.90;;;;;;5075569;28;20064;-57
2022/09/30 03:39:55;;;;;;;7.05;3.75;;;8.50;99.90;;;;;;5072867;28;20053;-58
2022/09/30 03:42:25;;;;;;;6.05;3.38;;;8.50;99.90;;;;;;5081042;28;20051;-56
2022/09/30 03:45:02;;;;;;;6.43;3.53;;;8.50;99.90;;;;;;5081582;28;20044;-57
2022/09/30 03:47:31;;;;;;;6.72;3.88;;;8.60;99.90;;;;;;5081808;28;20044;-56
2022/09/30 03:50:01;;;;;;;8.63;4.40;;;8.50;99.90;;;;;;5078128;28;20037;-58
2022/09/30 03:52:30;;;;;;;7.88;4.30;;;8.50;99.90;;;;;;5061563;28;20055;-57
2022/09/30 03:55:00;;;;;;;6.82;4.53;;;8.40;99.90;;;;;;5059573;28;20048;-58
2022/09/30 03:57:29;;;;;;;7.40;4.50;;;8.40;99.90;;;;;;5061594;28;20041;-58
2022/09/30 03:59:56;;;;;;;6.25;4.10;;;8.40;99.90;;;;;;5060938;28;20052;-57
2022/09/30 04:02:22;;;;;;;6.10;3.97;;;8.20;99.90;;;;;;5060601;28;20794;-57
2022/09/30 04:04:48;;;;;;;7.20;4.70;;;8.40;99.90;;;;;;5061410;28;20272;-56
2022/09/30 04:07:14;;;;;;;6.55;4.20;;;8.00;99.90;;;;;;5060445;28;20052;-57
2022/09/30 04:09:40;;;;;;;6.32;3.95;;;8.30;99.90;;;;;;5061012;28;20090;-57
2022/09/30 04:12:06;;;;;;;7.47;4.10;;;8.30;99.90;;;;;;5060461;28;20374;-57
2022/09/30 04:14:33;;;;;;;7.07;4.38;;;8.20;99.90;;;;;;5061331;28;20083;-56
2022/09/30 04:16:59;;;;;;;7.22;4.35;;;8.10;99.90;;;;;;5060520;28;20553;-57
2022/09/30 04:19:25;;;;;;;7.85;4.28;;;8.20;99.90;;;;;;5060479;28;20049;-59
2022/09/30 04:21:52;;;;;;;7.20;4.60;;;8.20;99.90;;;;;;5061203;28;20062;-57
2022/09/30 04:24:18;;;;;;;6.78;4.30;;;8.20;99.90;;;;;;5060462;28;20037;-57
2022/09/30 04:26:44;;;;;;;6.88;4.00;;;8.00;99.90;;;;;;5060520;28;20080;-57
2022/09/30 04:29:09;;;;;;;6.57;4.07;;;8.00;99.90;;;;;;5060235;28;20041;-57
2022/09/30 04:31:35;;;;;;;8.00;4.60;;;8.00;99.90;;;;;;5071266;28;20134;-57
2022/09/30 04:34:01;;;;;;;5.82;3.70;;;7.90;99.90;;;;;;5080427;28;20037;-56
2022/09/30 04:36:26;;;;;;;6.90;4.25;;;8.00;99.90;;;;;;5080437;28;20126;-58
2022/09/30 04:38:52;;;;;;;7.65;4.30;;;8.00;99.90;;;;;;5080617;28;20435;-56
2022/09/30 04:41:19;;;;;;;7.43;4.40;;;8.00;99.90;;;;;;5079203;28;20132;-58
2022/09/30 04:43:46;;;;;;;7.82;4.70;;;8.00;99.90;;;;;;5080755;28;20679;-57
2022/09/30 04:46:14;;;;;;;6.43;4.05;;;8.00;99.90;;;;;;5079859;28;20048;-57
2022/09/30 04:48:44;;;;;;;6.03;3.67;;;7.90;99.90;;;;;;5080645;28;20044;-58
2022/09/30 04:51:14;;;;;;;6.82;4.20;;;7.80;99.90;;;;;;5062419;28;20595;-57
2022/09/30 04:53:40;;;;;;;6.90;4.60;;;7.90;99.90;;;;;;5056121;28;20053;-58
2022/09/30 04:56:06;;;;;;;7.47;4.55;;;7.80;99.90;;;;;;5056059;28;20040;-57
2022/09/30 04:58:32;;;;;;;6.85;4.53;;;7.80;99.90;;;;;;5054120;28;20048;-57
2022/09/30 05:01:13;;;;;;;7.07;4.35;;;7.70;99.90;;;;;;5062800;28;20040;-57
2022/09/30 05:03:39;;;;;;;7.32;4.45;;;7.70;99.90;;;;;;5075645;28;20110;-57
2022/09/30 05:06:06;;;;;;;8.40;5.20;;;7.70;99.90;;;;;;5076341;28;20588;-57
2022/09/30 05:08:32;;;;;;;7.85;4.78;;;7.70;99.90;;;;;;5075710;28;20125;-56
2022/09/30 05:11:00;;;;;;;8.48;4.88;;;7.70;99.90;;;;;;5075416;28;20048;-57
2022/09/30 05:13:34;;;;;;;8.35;4.78;;;7.70;99.90;;;;;;5075522;28;20044;-57
2022/09/30 05:16:01;;;;;;;8.60;4.80;;;7.60;99.90;;;;;;5074639;28;20064;-55
2022/09/30 05:18:27;;;;;;;8.60;5.28;;;7.60;99.90;;;;;;5075512;28;20052;-57
2022/09/30 05:20:56;;;;;;;8.27;4.90;;;7.60;99.90;;;;;;5075360;28;20514;-58
2022/09/30 05:23:23;;;;;;;7.93;5.13;;;7.60;99.90;;;;;;5076037;28;20125;-57
2022/09/30 05:25:49;;;;;;;7.10;4.68;;;7.60;99.90;;;;;;5074231;28;20059;-56
2022/09/30 05:28:15;;;;;;;8.50;4.97;;;7.70;99.90;;;;;;5074993;28;20075;-57
2022/09/30 05:30:40;;;;;;;7.78;4.90;;;7.60;99.90;;;;;;5075896;28;20041;-57
2022/09/30 05:33:07;;;;;;;8.48;4.82;;;7.60;99.90;;;;;;5073366;28;20048;-57
2022/09/30 05:35:33;;;;;;;7.68;4.53;;;7.60;99.90;;;;;;5075565;28;20061;-57
2022/09/30 05:37:59;;;;;;;7.53;4.90;;;7.60;99.90;;;;;;5075089;28;20098;-58
2022/09/30 05:40:26;;;;;;;10.60;5.78;;;7.60;99.90;;;;;;5075429;28;20058;-57
2022/09/30 05:42:51;;;;;;;7.43;4.55;;;7.50;99.90;;;;;;5075595;28;20060;-57
2022/09/30 05:45:17;;;;;;;8.25;5.45;;;7.40;99.90;;;;;;5072891;28;20036;-57
2022/09/30 05:47:42;;;;;;;8.43;5.32;;;7.40;99.90;;;;;;5075414;28;20052;-57
2022/09/30 05:50:08;;;;;;;8.43;5.72;;;7.50;99.90;;;;;;5074290;28;20032;-57
2022/09/30 05:52:34;;;;;;;10.02;5.22;;;7.40;99.90;;;;;;5075403;28;20036;-57
2022/09/30 05:55:00;;;;;;;8.38;4.90;;;7.50;99.90;;;;;;5074218;28;20052;-57
2022/09/30 05:57:29;;;;;;;8.80;4.95;;;7.50;99.90;;;;;;5073280;28;20445;-58
2022/09/30 05:59:56;;;;;;;8.98;5.25;;;7.60;99.90;;;;;;5074972;28;20057;-57
2022/09/30 06:02:22;;;;;;;8.07;5.10;;;7.50;99.90;;;;;;5073781;28;20128;-57
2022/09/30 06:04:49;;;;;;;8.18;4.93;;;7.50;99.90;;;;;;5075749;28;20515;-57
2022/09/30 06:07:15;;;;;;;8.60;5.20;;;8.00;99.90;;;;;;5074648;28;20045;-57
2022/09/30 06:09:41;;;;;;;9.15;5.25;;;7.60;99.90;;;;;;5075361;28;20048;-58
2022/09/30 06:12:07;;;;;;;8.73;4.72;;;7.60;99.90;;;;;;5074600;28;20382;-57
2022/09/30 06:14:33;;;;;;;8.82;5.07;;;7.70;99.90;;;;;;5074948;28;20064;-57
2022/09/30 06:17:01;;;;;;;10.00;6.18;;;7.70;99.90;;;;;;5075106;28;20040;-57
2022/09/30 06:19:30;;;;;;;8.55;5.55;;;7.80;99.90;;;;;;5074464;28;20104;-58
2022/09/30 06:21:57;;;;;;;8.48;5.22;;;7.80;99.90;;;;;;5075344;28;20458;-57
2022/09/30 06:24:22;;;;;;;8.85;5.10;;;7.80;99.90;;;;;;5074080;28;20037;-57
2022/09/30 06:26:48;;;;;;;9.88;5.53;;;7.90;99.90;;;;;;5074755;28;20110;-58
2022/09/30 06:29:14;;;;;;;8.85;5.15;;;7.90;99.90;;;;;;5074567;28;20508;-56
2022/09/30 06:31:39;;;;;;;8.70;5.22;;;8.00;99.90;;;;;;5075160;28;20121;-57
2022/09/30 06:34:05;;;;;;;7.93;5.20;;;8.00;99.90;;;;;;5074898;28;20048;-56
2022/09/30 06:36:32;;;;;;;7.85;5.13;;;8.00;99.90;;;;;;5074733;28;20537;-57
2022/09/30 06:38:59;;;;;;;8.68;4.82;;;8.10;99.90;;;;;;5074843;28;20045;-57
2022/09/30 06:41:26;;;;;;;8.48;5.13;;;8.10;99.90;;;;;;5074113;28;20096;-57
2022/09/30 06:43:52;;;;;;;9.82;6.07;;;8.20;99.90;;;;;;5073576;28;20044;-58
2022/09/30 06:46:20;;;;;;;12.00;5.15;;;8.30;99.90;;;;;;5074048;28;20033;-57
2022/09/30 06:48:45;;;;;;;8.77;4.68;;;8.30;99.90;;;;;;5074825;28;20045;-57
2022/09/30 06:51:11;;;;;;;8.95;5.05;;;8.40;99.90;;;;;;5061514;28;20048;-56
2022/09/30 06:53:38;;;;;;;8.20;5.13;;;8.40;99.90;;;;;;5054295;28;20045;-57
2022/09/30 06:56:05;;;;;;;8.23;4.90;;;8.50;99.90;;;;;;5054766;28;20060;-57
2022/09/30 06:58:31;;;;;;;7.53;4.70;;;8.50;99.90;;;;;;5052861;28;20608;-57
2022/09/30 07:01:03;;;;;;;9.73;5.82;;;8.50;99.90;;;;;;5053994;28;20056;-57
2022/09/30 07:03:32;;;;;;;9.60;4.13;;;8.60;99.90;;;;;;5053187;28;20055;-55
2022/09/30 07:06:00;;;;;;;8.02;4.70;;;8.70;99.90;;;;;;5054981;28;20055;-57
2022/09/30 07:08:30;;;;;;;6.88;4.30;;;8.70;99.90;;;;;;5056572;28;20043;-57
2022/09/30 07:11:00;;;;;;;7.82;4.13;;;8.80;99.90;;;;;;5057712;28;20409;-57
2022/09/30 07:13:26;;;;;;;7.63;4.15;;;8.90;99.90;;;;;;5058106;28;20049;-57
2022/09/30 07:15:55;;;;;;;7.68;4.43;;;8.80;99.90;;;;;;5057313;28;20033;-57
2022/09/30 07:18:22;;;;;;;6.97;4.32;;;8.90;99.90;;;;;;5058365;28;20041;-57
2022/09/30 07:20:52;;;;;;;8.88;4.63;;;9.00;99.90;;;;;;5056330;28;20056;-57
2022/09/30 07:23:18;;;;;;;7.07;4.32;;;8.90;99.90;;;;;;5057724;28;20053;-58
2022/09/30 07:26:02;;;;;;;7.60;4.50;;;9.00;99.90;;;;;;5057715;28;20041;-57
2022/09/30 07:28:31;;;;;;;7.00;4.50;;;9.00;99.90;;;;;;5057529;28;20049;-57
2022/09/30 07:30:59;;;;;;;8.30;4.75;;;9.20;99.90;;;;;;5056862;28;20045;-57
2022/09/30 07:33:27;;;;;;;7.78;4.38;;;9.10;99.90;;;;;;5056124;28;20041;-57
2022/09/30 07:35:55;;;;;;;8.18;4.68;;;9.20;99.90;;;;;;5057849;28;20059;-57
2022/09/30 07:38:23;;;;;;;7.95;4.32;;;9.30;99.90;;;;;;5067244;28;20036;-56
2022/09/30 07:40:58;;;;;;;8.35;4.82;;;9.30;99.90;;;;;;5075475;28;20052;-58
2022/09/30 07:43:30;;;;;;;8.32;4.22;;;9.50;99.90;;;;;;5078007;28;20117;-57
2022/09/30 07:45:55;;;;;;;9.00;4.32;;;9.60;99.90;;;;;;5077093;28;20066;-57
2022/09/30 07:48:42;;;;;;;7.75;4.15;;;9.70;99.90;;;;;;5077815;28;20567;-57
2022/09/30 07:51:20;;;;;;;7.18;4.53;;;9.70;99.90;;;;;;5076781;28;20048;-56
2022/09/30 07:53:50;;;;;;;7.30;4.20;;;9.90;99.90;;;;;;5076848;28;20044;-57
2022/09/30 07:56:16;;;;;;;6.57;4.15;;;10.00;99.90;;;;;;5076021;28;20045;-57
2022/09/30 07:58:43;;;;;;;7.75;4.03;;;10.00;99.90;;;;;;5075620;28;20041;-57
2022/09/30 08:01:08;;;;;;;5.95;3.70;;;10.20;99.90;;;;;;5076928;28;20485;-57
2022/09/30 08:03:39;;;;;;;7.35;4.20;;;10.20;99.90;;;;;;5076460;28;20047;-57
2022/09/30 08:06:09;;;;;;;8.23;5.32;;;10.30;99.90;;;;;;5076967;28;20048;-58
2022/09/30 08:08:35;;;;;;;7.55;4.78;;;10.50;99.90;;;;;;5077164;28;20045;-57
2022/09/30 08:11:01;;;;;;;7.30;4.13;;;10.50;99.90;;;;;;5076315;28;20045;-58
2022/09/30 08:13:27;;;;;;;6.70;3.95;;;10.60;99.90;;;;;;5076673;28;20040;-58
2022/09/30 08:15:53;;;;;;;8.07;4.43;;;10.70;99.90;;;;;;5075927;28;20037;-58
2022/09/30 08:18:19;;;;;;;7.93;4.43;;;10.80;99.90;;;;;;5076266;28;20059;-58
2022/09/30 08:20:45;;;;;;;7.93;4.93;;;10.90;99.90;;;;;;5076291;28;20109;-57
2022/09/30 08:23:11;;;;;;;9.32;5.50;;;11.10;99.90;;;;;;5077052;28;20152;-57
2022/09/30 08:25:36;;;;;;;8.00;4.80;;;11.20;99.90;;;;;;5058375;28;20044;-58
2022/09/30 08:28:02;;;;;;;8.48;5.07;;;11.30;99.90;;;;;;5057738;28;20429;-58
2022/09/30 08:30:28;;;;;;;7.80;4.43;;;11.30;99.90;;;;;;5076620;28;20041;-58
2022/09/30 08:32:53;;;;;;;8.00;5.20;;;11.40;99.90;;;;;;5076195;28;20087;-58
2022/09/30 08:35:19;;;;;;;9.15;4.70;;;11.60;99.90;;;;;;5076857;28;20062;-57
2022/09/30 08:37:45;;;;;;;9.68;4.80;;;11.50;99.90;;;;;;5075486;28;20091;-58
2022/09/30 08:40:26;;;;;;;7.53;4.50;;;11.70;99.90;;;;;;5076744;28;20048;-58
2022/09/30 08:43:40;;;;;;;8.77;4.65;;;11.70;99.90;;;;;;5075497;28;20045;-57
2022/09/30 08:46:49;;;;;;;8.23;4.45;;;11.80;99.90;;;;;;5052557;28;20516;-58
2022/09/30 08:49:36;;;;;;;8.30;4.90;;;11.90;99.90;;;;;;5078352;28;20059;-58
2022/09/30 08:52:07;;;;;;;9.95;5.20;;;11.90;99.90;;;;;;5060952;28;20041;-58
2022/09/30 08:54:34;;;;;;;9.50;6.05;;;12.00;99.90;;;;;;5059948;28;20151;-59
2022/09/30 08:57:02;;;;;;;9.07;5.68;;;12.10;99.90;;;;;;5060279;28;20464;-58
2022/09/30 08:59:43;;;;;;;9.02;5.30;;;12.20;99.90;;;;;;5059560;28;20049;-57
2022/09/30 09:02:09;;;;;;;9.23;5.75;;;12.20;99.90;;;;;;5059653;28;20076;-58
2022/09/30 09:04:34;;;;;;;9.32;5.82;;;12.30;99.90;;;;;;5060293;28;20127;-58
2022/09/30 09:07:15;;;;;;;8.02;4.93;;;12.30;99.90;;;;;;5059206;28;20052;-58
2022/09/30 09:10:12;;;;;;;9.80;5.57;;;12.50;99.90;;;;;;5060253;28;20059;-58
2022/09/30 09:12:49;;;;;;;9.55;5.40;;;12.50;99.90;;;;;;5059970;28;20048;-58
2022/09/30 09:15:37;;;;;;;9.95;5.35;;;12.60;99.90;;;;;;5059037;28;20045;-59
2022/09/30 09:18:42;;;;;;;12.13;6.25;;;12.70;99.90;;;;;;5060116;28;20072;-57
2022/09/30 09:21:35;;;;;;;10.57;7.13;;;12.60;99.90;;;;;;5059234;28;20045;-58
2022/09/30 09:24:02;;;;;;;11.20;6.45;;;12.70;99.90;;;;;;5059140;28;20071;-58
2022/09/30 09:26:35;;;;;;;10.52;6.22;;;12.60;99.90;;;;;;5059977;28;20049;-57
2022/09/30 09:29:19;;;;;;;11.25;6.22;;;12.80;99.90;;;;;;5058105;28;20041;-58
2022/09/30 09:31:47;;;;;;;9.70;6.32;;;12.60;99.90;;;;;;5058726;28;20081;-58
2022/09/30 09:34:14;;;;;;;10.77;6.65;;;12.60;99.90;;;;;;5059468;28;20041;-55
2022/09/30 09:36:52;;;;;;;10.38;7.00;;;12.60;99.90;;;;;;5057260;28;20041;-58
2022/09/30 09:39:20;;;;;;;10.90;6.32;;;12.70;99.90;;;;;;5057414;28;20048;-57
2022/09/30 09:42:03;;;;;;;9.00;5.90;;;12.70;99.90;;;;;;5078574;28;20055;-58
2022/09/30 09:44:36;;;;;;;9.07;6.35;;;12.70;99.90;;;;;;5079409;28;20053;-58
2022/09/30 09:47:13;;;;;;;9.55;5.88;;;12.70;99.90;;;;;;5079280;28;20070;-57
2022/09/30 09:49:49;;;;;;;10.50;6.53;;;12.80;99.90;;;;;;5078254;28;20045;-58
2022/09/30 09:52:29;;;;;;;8.85;5.93;;;12.80;99.90;;;;;;5058960;28;20041;-58
2022/09/30 09:54:55;;;;;;;9.13;5.18;;;12.90;99.90;;;;;;5067527;28;20047;-58
2022/09/30 09:57:26;;;;;;;8.93;5.10;;;12.90;99.90;;;;;;5075249;28;20044;-58
2022/09/30 10:03:02;;;;;;;9.38;6.00;;;12.90;99.90;;;;;;5074445;28;20124;-58
2022/09/30 10:05:31;;;;;;;7.55;5.07;;;12.90;99.90;;;;;;5074296;28;20056;-58
2022/09/30 10:08:10;;;;;;;8.32;5.43;;;13.00;99.90;;;;;;5074445;28;20052;-58
2022/09/30 10:10:50;;;;;;;8.13;5.20;;;13.00;99.90;;;;;;5074326;28;20051;-59
2022/09/30 10:13:29;;;;;;;8.25;5.60;;;13.00;99.90;;;;;;5075420;28;20150;-57
2022/09/30 10:15:57;;;;;;;8.25;5.38;;;13.10;99.90;;;;;;5074401;28;20047;-58
2022/09/30 10:18:27;;;;;;;7.82;5.22;;;13.20;99.90;;;;;;5074763;28;20044;-58
2022/09/30 10:21:00;;;;;;;9.15;5.10;;;13.30;99.90;;;;;;5074007;28;20040;-56
2022/09/30 10:23:27;;;;;;;7.38;4.90;;;13.50;99.90;;;;;;5074466;28;20040;-58
2022/09/30 10:26:02;;;;;;;8.30;5.20;;;13.30;99.90;;;;;;5074793;28;20443;-57
2022/09/30 10:28:31;;;;;;;9.13;6.22;;;13.50;99.90;;;;;;5054520;28;20049;-58
2022/09/30 10:31:06;;;;;;;7.88;5.18;;;13.50;99.90;;;;;;5054345;28;20041;-58
2022/09/30 10:33:44;;;;;;;8.77;5.88;;;13.50;99.90;;;;;;5054056;28;20048;-58
2022/09/30 10:36:15;;;;;;;8.77;5.30;;;13.60;99.90;;;;;;5054552;28;20096;-58
2022/09/30 10:38:55;;;;;;;8.63;6.00;;;13.70;99.90;;;;;;5055332;28;20096;-57
2022/09/30 10:41:24;;;;;;;11.18;6.05;;;13.70;99.90;;;;;;5071071;28;20059;-58
2022/09/30 10:43:53;;;;;;;9.65;5.68;;;13.70;99.90;;;;;;5078281;28;20048;-58
2022/09/30 10:46:29;;;;;;;8.18;5.18;;;13.80;99.90;;;;;;5078195;28;20067;-58
2022/09/30 10:48:56;;;;;;;8.38;5.70;;;13.90;99.90;;;;;;5078892;28;20080;-58
2022/09/30 10:51:33;;;;;;;7.93;5.22;;;14.10;99.90;;;;;;5064704;28;20056;-57
2022/09/30 10:53:59;;;;;;;9.35;6.18;;;14.20;99.90;;;;;;5057658;28;20102;-57
2022/09/30 10:56:36;;;;;;;10.07;6.07;;;14.30;99.90;;;;;;5058879;28;20033;-57
2022/09/30 10:59:05;;;;;;;9.82;6.15;;;14.20;99.90;;;;;;5057837;28;20060;-57
2022/09/30 11:01:43;;;;;;;8.48;5.57;;;14.50;99.90;;;;;;5058841;28;20033;-58
2022/09/30 11:04:20;;;;;;;8.98;5.63;;;14.50;99.90;;;;;;5058671;28;20048;-57
2022/09/30 11:06:48;;;;;;;7.30;4.60;;;14.60;99.90;;;;;;5057162;28;20071;-58
2022/09/30 11:09:19;;;;;;;8.30;4.88;;;14.90;99.90;;;;;;5057216;28;20045;-58
2022/09/30 11:11:56;;;;;;;7.55;4.43;;;14.90;99.90;;;;;;5057460;28;20106;-58
2022/09/30 11:14:45;;;;;;;6.47;3.83;;;15.00;99.90;;;;;;5060673;28;20053;-58
2022/09/30 11:17:31;;;;;;;6.43;3.22;;;15.10;99.90;;;;;;5061749;28;20052;-58
2022/09/30 11:20:23;;;;;;;6.55;2.85;;;15.20;99.90;;;;;;5061170;28;20104;-58
2022/09/30 11:22:59;;;;;;;;;;;15.40;99.90;;;;;;5062668;28;20044;-58
2022/09/30 11:25:45;;;;;;;6.88;3.22;;;15.20;99.90;;;;;;5061166;28;19924;-58
2022/09/30 11:28:28;;;;;;;6.28;3.05;;;15.30;99.90;;;;;;5060985;28;20080;-58
2022/09/30 11:31:07;;;;;;;6.82;2.97;;;15.20;99.90;;;;;;5061884;28;20134;-59
2022/09/30 11:33:51;;;;;;;6.82;3.40;;;15.30;99.90;;;;;;5061149;28;20390;-59
2022/09/30 11:36:49;;;;;;;6.57;3.50;;;15.20;99.90;;;;;;5061289;28;20228;-58
2022/09/30 11:39:47;;;;;;;6.72;2.95;;;15.30;99.90;;;;;;5061414;28;20113;-58
2022/09/30 11:42:24;;;;;;;6.65;3.03;;;15.50;99.90;;;;;;5060857;28;20056;-58
2022/09/30 11:45:01;;;;;;;6.25;2.75;;;15.60;99.90;;;;;;5061158;28;20067;-58
2022/09/30 11:48:00;;;;;;;5.80;2.28;;;15.80;99.90;;;;;;5061434;28;20579;-58
2022/09/30 11:50:33;;;;;;;5.60;2.20;;;15.90;99.90;;;;;;5067003;28;20420;-58
2022/09/30 11:53:21;;;;;;;4.82;2.20;;;16.10;99.90;;;;;;5080774;28;20041;-58
2022/09/30 11:55:52;;;;;;;5.07;2.03;;;16.20;99.90;;;;;;5079945;28;20040;-58
2022/09/30 11:58:24;;;;;;;6.82;2.38;;;16.20;99.90;;;;;;5080216;28;20492;-58
2022/09/30 12:00:57;;;;;;;4.97;2.10;;;16.00;99.90;;;;;;5080800;28;20070;-58
2022/09/30 12:03:28;;;;;;;4.60;1.80;;;15.80;99.90;;;;;;5080204;28;20045;-58
2022/09/30 12:05:58;;;;;;;5.28;1.80;;;15.60;99.90;;;;;;5081084;28;20052;-58
2022/09/30 12:08:32;;;;;;;5.45;2.53;;;15.40;99.90;;;;;;5080882;28;20049;-58
2022/09/30 12:11:41;;;;;;;6.45;2.28;;;15.50;99.90;;;;;;5079901;28;20045;-58
2022/09/30 12:14:20;;;;;;;4.35;1.83;;;15.60;99.90;;;;;;5047439;28;20060;-58
2022/09/30 12:16:47;;;;;;;5.70;2.70;;;15.80;99.90;;;;;;5080614;28;20562;-58
2022/09/30 12:19:30;;;;;;;4.50;1.85;;;15.90;99.90;;;;;;5078967;28;20082;-59
2022/09/30 12:22:22;;;;;;;4.03;1.65;;;16.00;99.90;;;;;;5080148;28;20049;-58
2022/09/30 12:24:47;;;;;;;4.60;2.00;;;16.10;99.90;;;;;;5080228;28;20071;-58
2022/09/30 12:27:37;;;;;;;4.97;1.60;;;15.80;99.90;;;;;;5079560;28;20048;-58
2022/09/30 12:30:19;;;;;;;4.90;1.80;;;15.40;99.90;;;;;;5080855;28;20036;-58
2022/09/30 12:33:12;;;;;;;4.80;1.60;;;15.20;99.90;;;;;;5079588;28;20063;-58
2022/09/30 12:35:52;;;;;;;4.38;1.63;;;15.20;99.90;;;;;;5080227;28;20049;-58
2022/09/30 12:38:26;;;;;;;5.20;1.90;;;15.20;99.90;;;;;;5080259;28;20029;-57
2022/09/30 12:41:10;;;;;;;4.60;2.10;;;15.10;99.90;;;;;;5079735;28;20052;-58
2022/09/30 12:43:42;;;;;;;4.90;1.90;;;15.10;99.90;;;;;;5080610;28;20491;-58
2022/09/30 12:46:13;;;;;;;4.97;2.05;;;15.30;99.90;;;;;;5080148;28;20051;-58
2022/09/30 12:48:42;;;;;;;6.57;2.15;;;15.60;99.90;;;;;;5080703;28;20060;-56
2022/09/30 12:51:19;;;;;;;5.35;2.20;;;15.70;99.90;;;;;;5077095;28;20274;-56
2022/09/30 12:53:50;;;;;;;5.32;2.17;;;15.70;99.90;;;;;;5074524;28;20528;-58
2022/09/30 12:56:17;;;;;;;7.47;2.20;;;15.70;99.90;;;;;;5076794;28;20044;-56
2022/09/30 12:58:51;;;;;;;5.07;2.00;;;15.80;99.90;;;;;;5075766;28;20045;-56
2022/09/30 13:01:23;;;;;;;5.25;2.03;;;16.00;99.90;;;;;;5075990;28;20061;-56
2022/09/30 13:04:16;;;;;;;4.63;2.13;;;16.00;99.90;;;;;;5074295;28;20576;-58
2022/09/30 13:06:45;;;;;;;5.55;2.22;;;15.80;99.90;;;;;;5075580;28;20080;-58
2022/09/30 13:09:21;;;;;;;4.05;1.83;;;15.80;99.90;;;;;;5074693;28;20049;-58
2022/09/30 13:11:53;;;;;;;5.40;1.98;;;15.90;99.90;;;;;;5075481;28;20036;-58
2022/09/30 13:14:43;;;;;;;4.75;1.92;;;16.10;99.90;;;;;;5075966;28;20072;-58
2022/09/30 13:17:09;;;;;;;4.70;1.98;;;15.90;99.90;;;;;;5076473;28;20041;-57
2022/09/30 13:19:51;;;;;;;6.55;2.08;;;15.70;99.90;;;;;;5075697;28;20074;-58
2022/09/30 13:22:17;;;;;;;5.65;2.83;;;15.80;99.90;;;;;;5075952;28;20392;-58
2022/09/30 13:25:09;;;;;;;5.60;2.13;;;15.80;99.90;;;;;;5075444;28;20040;-58
2022/09/30 13:27:35;;;;;;;5.75;2.80;;;15.90;99.90;;;;;;5075178;28;20074;-58